EPGD/GDN METAR and TAF weather

Enter ICAO airport designator
Station Type Date Time Source
EPGD METAR 2022/06/27 17:00 UTC NOAA

EPGD 271700Z 16011KT CAVOK 30/14 Q1017


Station Type Date Time Source
EPGD Decoded METAR 2022/06/27 17:00 UTC NOAA

Gdansk-Rebiechowo, Poland (EPGD) 54-23N 018-28E 138M
Jun 27, 2022 - 01:00 PM EDT / 2022.06.27 1700 UTC
Wind: from the SSE (160 degrees) at 13 MPH (11 KT):0
Visibility: greater than 7 mile(s):0
Temperature: 86 F (30 C)
Dew Point: 57 F (14 C)
Relative Humidity: 37%
Pressure (altimeter): 30.03 in. Hg (1017 hPa)
ob: EPGD 271700Z 16011KT CAVOK 30/14 Q1017
cycle: 17

Station Type Date Time Source
EPGD TAF 2022/06/27 12:35 UTC NOAA

TAF EPGD 271130Z 2712/2812 14012KT CAVOK
TEMPO 2712/2717 16017G27KT
BECMG 2806/2809 29012KT
TEMPO 2808/2812 SHRA BKN040CB PROB40
TEMPO 2809/2812 VRB15G30KT 3000 TSRA BKN014CB

Example: see airport list